Arlington, Arizona
Current Conditions -  °F | °C
As of 11:55 AM on Thursday 27 Nov 2014 (Local Time) from KBXK Reporting Station
Clear Clear  
Wind Chill: 73°   Ceiling: Unl
Heat Index: 73°   Visibility: 9mi
Dew Point: 25°   Wind: 10mph
Humidity: 16%   Direction: 110°ESE
Pressure: 30.17"   Gusts: NA
Location:  33.33°N, 112.77°W
Report Text: KBXK 271855Z AUTO 11009KT 9SM CLR 23/M04 A3017 RMK AO1
Loading
Personal Weather Stations






























Interactive Weather Map New forecast layout! Learn more

10-Day Weather Forecast

Advertisements
Track Severe Weather on mobile